Time;durP1;ratioP1;P1;durP2;ratioP2;P2;SDS_P1;SDS_P2;PMS_P1;PMS_P2;Temp;Humidity;BMP_temperature;BMP_pressure;BME280_temperature;BME280_humidity;BME280_pressure;Samples;Min_cycle;Max_cycle;Signal;HPM_P1;HPM_P2
2022/10/26 00:00:50;;;;;;;;;;;;;;;;;;5090373;28;19920;-69
2022/10/26 00:03:53;;;;;;;;;;;;;;;;;;5111450;27;19916;-67
2022/10/26 00:06:19;;;;;;;;;;;;;;;;;;5111821;28;20391;-67
2022/10/26 00:10:07;;;;;;;;;;;;;;;;;;5071151;28;19919;-68
2022/10/26 00:12:33;;;;;;;;;;;;;;;;;;5071189;28;19995;-67
2022/10/26 00:16:27;;;;;;;;;;;;;;;;;;5091660;27;19923;-67
2022/10/26 00:19:17;;;;;;;;;;;;;;;;;;5092025;27;19938;-67
2022/10/26 00:21:43;;;;;;;;;;;;;;;;;;5091385;28;20428;-67
2022/10/26 00:24:09;;;;;;;;;;;;;;;;;;5090915;28;19912;-67
2022/10/26 00:29:00;;;;;;;;;;;;;;;;;;5112211;27;19916;-67
2022/10/26 00:31:26;;;;;;;;;;;;;;;;;;5110082;28;19995;-67
2022/10/26 00:35:56;;;;;;;;;;;;;;;;;;5091480;27;19916;-67
2022/10/26 00:38:22;;;;;;;;;;;;;;;;;;5089778;28;20348;-67
2022/10/26 00:40:48;;;;;;;;;;;;;;;;;;5091276;28;19915;-67
2022/10/26 00:43:15;;;;;;;;;;;;;;;;;;5091287;28;19912;-67
2022/10/26 00:45:40;;;;;;;;;;;;;;;;;;5089605;28;19963;-67
2022/10/26 00:48:06;;;;;;;;;;;;;;;;;;5091204;28;20364;-67
2022/10/26 00:52:12;;;;;;;;;;;;;;;;;;5111861;27;19916;-67
2022/10/26 00:54:38;;;;;;;;;;;;;;;;;;5111752;28;20015;-67
2022/10/26 00:57:04;;;;;;;;;;;;;;;;;;5111633;28;19908;-67
2022/10/26 00:59:30;;;;;;;;;;;;;;;;;;5111300;28;19914;-67
2022/10/26 01:01:56;;;;;;;;;;;;;;;;;;5111664;28;19908;-67
2022/10/26 01:04:21;;;;;;;;;;;;;;;;;;5111557;28;19984;-67
2022/10/26 01:06:47;;;;;;;;;;;;;;;;;;5111106;28;19915;-67
2022/10/26 01:11:48;;;;;;;;;;;;;;;;;;5091580;28;19916;-67
2022/10/26 01:15:48;;;;;;;;;;;;;;;;;;5153502;27;20339;-68
2022/10/26 01:18:14;;;;;;;;;;;;;;;;;;5153379;27;19951;-68
2022/10/26 01:20:40;;;;;;;;;;;;;;;;;;5152547;27;19915;-68
2022/10/26 01:23:06;;;;;;;;;;;;;;;;;;5134263;27;19911;-68
2022/10/26 01:25:32;;;;;;;;;;;;;;;;;;5153163;27;19914;-68
2022/10/26 01:27:58;;;;;;;;;;;;;;;;;;5152332;27;19908;-68
2022/10/26 01:30:24;;;;;;;;;;;;;;;;;;5134148;27;19908;-68
2022/10/26 01:32:50;;;;;;;;;;;;;;;;;;5152642;27;19952;-68
2022/10/26 01:35:16;;;;;;;;;;;;;;;;;;5152095;27;19923;-68
2022/10/26 01:37:41;;;;;;;;;;;;;;;;;;5152527;27;20001;-68
2022/10/26 01:41:26;;;;;;;;;;;;;;;;;;5091678;27;20399;-67
2022/10/26 01:43:52;;;;;;;;;;;;;;;;;;5091346;28;20364;-67
2022/10/26 01:47:03;;;;;;;;;;;;;;;;;;5112349;27;19923;-67
2022/10/26 01:49:28;;;;;;;;;;;;;;;;;;5111346;28;19916;-67
2022/10/26 01:51:54;;;;;;;;;;;;;;;;;;5111708;28;19961;-67
2022/10/26 01:54:37;;;;;;;;;;;;;;;;;;5091549;27;19988;-66
2022/10/26 01:57:03;;;;;;;;;;;;;;;;;;5091479;28;20444;-67
2022/10/26 02:00:28;;;;;;;;;;;;;;;;;;5111963;27;19916;-67
2022/10/26 02:09:34;;;;;;;;;;;;;;;;;;5111616;27;19916;-67
2022/10/26 02:12:22;;;;;;;;;;;;;;;;;;5111767;27;19916;-67
2022/10/26 02:15:22;;;;;;;;;;;;;;;;;;5091512;27;20299;-67
2022/10/26 02:17:48;;;;;;;;;;;;;;;;;;5089628;28;20000;-67
2022/10/26 02:23:13;;;;;;;;;;;;;;;;;;5091541;27;19912;-67
2022/10/26 02:25:39;;;;;;;;;;;;;;;;;;5091322;28;20019;-68
2022/10/26 02:29:42;;;;;;;;;;;;;;;;;;5131999;27;20014;-67
2022/10/26 02:32:08;;;;;;;;;;;;;;;;;;5132167;28;19943;-67
2022/10/26 02:34:34;;;;;;;;;;;;;;;;;;5132228;27;19974;-67
2022/10/26 02:39:08;;;;;;;;;;;;;;;;;;5091482;27;20295;-67
2022/10/26 02:41:34;;;;;;;;;;;;;;;;;;5091588;28;20007;-67
2022/10/26 02:44:00;;;;;;;;;;;;;;;;;;5089658;28;19954;-67
2022/10/26 02:48:37;;;;;;;;;;;;;;;;;;5091835;27;20373;-67
2022/10/26 02:51:03;;;;;;;;;;;;;;;;;;5090956;28;19950;-67
2022/10/26 02:53:29;;;;;;;;;;;;;;;;;;5091503;28;20403;-67
2022/10/26 02:55:55;;;;;;;;;;;;;;;;;;5091286;28;19916;-67
2022/10/26 03:00:43;;;;;;;;;;;;;;;;;;5092287;27;20287;-67
2022/10/26 03:03:55;;;;;;;;;;;;;;;;;;5092276;27;19923;-67
2022/10/26 03:06:21;;;;;;;;;;;;;;;;;;5091114;28;19999;-67
2022/10/26 03:08:47;;;;;;;;;;;;;;;;;;5091341;28;19908;-67
2022/10/26 03:11:13;;;;;;;;;;;;;;;;;;5091255;28;19961;-67
2022/10/26 03:16:04;;;;;;;;;;;;;;;;;;5092275;27;19917;-67
2022/10/26 03:18:30;;;;;;;;;;;;;;;;;;5091413;28;19995;-67
2022/10/26 03:20:56;;;;;;;;;;;;;;;;;;5089548;28;19908;-67
2022/10/26 03:23:22;;;;;;;;;;;;;;;;;;5091305;28;19916;-67
2022/10/26 03:25:48;;;;;;;;;;;;;;;;;;5089952;28;19934;-67
2022/10/26 03:28:14;;;;;;;;;;;;;;;;;;5090856;28;19919;-67
2022/10/26 03:31:34;;;;;;;;;;;;;;;;;;5092172;27;20292;-67
2022/10/26 03:34:00;;;;;;;;;;;;;;;;;;5091028;28;20331;-67
2022/10/26 03:36:26;;;;;;;;;;;;;;;;;;5090078;28;19908;-68
2022/10/26 03:38:52;;;;;;;;;;;;;;;;;;5091343;28;19915;-67
2022/10/26 03:41:18;;;;;;;;;;;;;;;;;;5089550;28;20384;-67
2022/10/26 03:43:44;;;;;;;;;;;;;;;;;;5089933;28;19912;-67
2022/10/26 03:46:10;;;;;;;;;;;;;;;;;;5091224;28;19908;-68
2022/10/26 03:48:36;;;;;;;;;;;;;;;;;;5090749;28;19961;-67
2022/10/26 03:51:02;;;;;;;;;;;;;;;;;;5091036;28;19916;-68
2022/10/26 03:53:28;;;;;;;;;;;;;;;;;;5091028;28;19969;-67
2022/10/26 03:55:53;;;;;;;;;;;;;;;;;;5090544;28;19919;-67
2022/10/26 03:58:19;;;;;;;;;;;;;;;;;;5089969;28;20284;-68
2022/10/26 04:00:45;;;;;;;;;;;;;;;;;;5090855;28;19909;-67
2022/10/26 04:03:11;;;;;;;;;;;;;;;;;;5090427;28;20019;-67
2022/10/26 04:05:37;;;;;;;;;;;;;;;;;;5090797;28;19908;-67
2022/10/26 04:08:03;;;;;;;;;;;;;;;;;;5090718;28;19912;-67
2022/10/26 04:10:29;;;;;;;;;;;;;;;;;;5090263;28;19966;-67
2022/10/26 04:12:56;;;;;;;;;;;;;;;;;;5090602;28;19909;-67
2022/10/26 04:16:58;;;;;;;;;;;;;;;;;;5030994;28;19917;-67
2022/10/26 04:19:24;;;;;;;;;;;;;;;;;;5031894;28;20453;-67
2022/10/26 04:21:50;;;;;;;;;;;;;;;;;;5031189;28;19992;-67
2022/10/26 04:24:16;;;;;;;;;;;;;;;;;;5030978;28;19932;-67
2022/10/26 04:26:44;;;;;;;;;;;;;;;;;;5031179;28;20388;-67
2022/10/26 04:29:09;;;;;;;;;;;;;;;;;;5029852;28;20428;-67
2022/10/26 04:31:35;;;;;;;;;;;;;;;;;;5030582;28;19913;-68
2022/10/26 04:34:01;;;;;;;;;;;;;;;;;;5031046;28;19916;-68
2022/10/26 04:36:27;;;;;;;;;;;;;;;;;;5030473;28;20282;-68
2022/10/26 04:38:53;;;;;;;;;;;;;;;;;;5030877;28;19978;-67
2022/10/26 04:41:19;;;;;;;;;;;;;;;;;;5030875;28;20281;-68
2022/10/26 04:43:45;;;;;;;;;;;;;;;;;;5030383;28;19920;-67
2022/10/26 04:46:12;;;;;;;;;;;;;;;;;;5030767;28;19909;-67
2022/10/26 04:48:38;;;;;;;;;;;;;;;;;;5030757;28;19914;-67
2022/10/26 04:51:04;;;;;;;;;;;;;;;;;;5030344;28;19910;-67
2022/10/26 04:53:30;;;;;;;;;;;;;;;;;;5030689;28;19910;-68
2022/10/26 04:55:56;;;;;;;;;;;;;;;;;;5030525;28;19924;-67
2022/10/26 04:58:22;;;;;;;;;;;;;;;;;;5030318;28;20421;-67
2022/10/26 05:00:48;;;;;;;;;;;;;;;;;;5030692;28;19913;-67
2022/10/26 05:03:14;;;;;;;;;;;;;;;;;;5030791;28;19909;-67
2022/10/26 05:05:40;;;;;;;;;;;;;;;;;;5030246;28;19910;-67
2022/10/26 05:08:06;;;;;;;;;;;;;;;;;;5030907;28;20404;-67
2022/10/26 05:10:32;;;;;;;;;;;;;;;;;;5030735;28;19909;-67
2022/10/26 05:12:58;;;;;;;;;;;;;;;;;;5029867;28;20012;-66
2022/10/26 05:15:24;;;;;;;;;;;;;;;;;;5028589;28;20352;-67
2022/10/26 05:17:50;;;;;;;;;;;;;;;;;;5025056;28;19910;-68
2022/10/26 05:20:16;;;;;;;;;;;;;;;;;;5021929;28;19917;-67
2022/10/26 05:22:42;;;;;;;;;;;;;;;;;;5022486;28;19914;-68
2022/10/26 05:25:08;;;;;;;;;;;;;;;;;;5014687;28;19924;-68
2022/10/26 05:27:34;;;;;;;;;;;;;;;;;;5003681;28;19917;-67
2022/10/26 05:30:00;;;;;;;;;;;;;;;;;;4999189;28;19964;-68
2022/10/26 05:32:26;;;;;;;;;;;;;;;;;;5009784;28;20016;-69
2022/10/26 05:34:52;;;;;;;;;;;;;;;;;;5010580;28;19917;-68
2022/10/26 05:37:18;;;;;;;;;;;;;;;;;;5011411;28;19924;-68
2022/10/26 05:39:44;;;;;;;;;;;;;;;;;;5009698;28;19914;-67
2022/10/26 05:42:10;;;;;;;;;;;;;;;;;;5008470;28;20404;-67
2022/10/26 05:44:36;;;;;;;;;;;;;;;;;;5008263;28;19910;-67
2022/10/26 05:47:02;;;;;;;;;;;;;;;;;;5010107;28;19916;-67
2022/10/26 05:49:28;;;;;;;;;;;;;;;;;;5009826;28;20012;-66
2022/10/26 05:53:08;;;;;;;;;;;;;;;;;;5082128;27;19931;-66
2022/10/26 05:55:34;;;;;;;;;;;;;;;;;;5074643;28;19917;-66
2022/10/26 05:58:00;;;;;;;;;;;;;;;;;;5079628;28;19954;-67
2022/10/26 06:00:26;;;;;;;;;;;;;;;;;;5067982;28;19915;-67
2022/10/26 06:02:52;;;;;;;;;;;;;;;;;;5068826;28;19921;-66
2022/10/26 06:05:18;;;;;;;;;;;;;;;;;;5068995;28;19919;-65
2022/10/26 06:07:44;;;;;;;;;;;;;;;;;;5068503;28;19909;-67
2022/10/26 06:10:48;;;;;;;;;;;;;;;;;;5109604;27;19916;-65
2022/10/26 06:17:34;;;;;;;;;;;;;;;;;;5098354;27;19923;-67
2022/10/26 06:20:01;;;;;;;;;;;;;;;;;;5106835;28;19918;-67
2022/10/26 06:22:27;;;;;;;;;;;;;;;;;;5089506;28;19908;-66
2022/10/26 06:24:53;;;;;;;;;;;;;;;;;;5088904;28;19908;-67
2022/10/26 06:27:19;;;;;;;;;;;;;;;;;;5090588;28;19908;-67
2022/10/26 06:31:27;;;;;;;;;;;;;;;;;;5076990;27;19920;-67
2022/10/26 06:33:53;;;;;;;;;;;;;;;;;;5089462;28;19918;-68
2022/10/26 06:36:19;;;;;;;;;;;;;;;;;;5086977;28;20259;-67
2022/10/26 06:38:45;;;;;;;;;;;;;;;;;;5090344;28;19908;-67
2022/10/26 06:41:13;;;;;;;;;;;;;;;;;;5086914;28;19915;-66
2022/10/26 06:43:39;;;;;;;;;;;;;;;;;;5084004;28;20376;-66
2022/10/26 06:46:05;;;;;;;;;;;;;;;;;;5083879;28;19912;-67
2022/10/26 06:48:31;;;;;;;;;;;;;;;;;;5080220;28;19916;-67
2022/10/26 06:50:57;;;;;;;;;;;;;;;;;;5089329;28;19924;-67
2022/10/26 06:53:24;;;;;;;;;;;;;;;;;;5090436;28;19915;-66
2022/10/26 06:55:50;;;;;;;;;;;;;;;;;;5090584;28;19909;-66
2022/10/26 06:58:16;;;;;;;;;;;;;;;;;;5086863;28;19908;-67
2022/10/26 07:01:29;;;;;;;;;;;;;;;;;;5089353;27;19912;-67
2022/10/26 07:04:17;;;;;;;;;;;;;;;;;;5129292;27;19915;-67
2022/10/26 07:06:43;;;;;;;;;;;;;;;;;;5130277;27;19918;-66
2022/10/26 07:09:41;;;;;;;;;;;;;;;;;;5049644;28;19920;-67
2022/10/26 07:12:07;;;;;;;;;;;;;;;;;;5049623;28;19913;-66
2022/10/26 07:14:33;;;;;;;;;;;;;;;;;;5049714;28;20419;-67
2022/10/26 07:18:45;;;;;;;;;;;;;;;;;;5089265;27;19919;-67
2022/10/26 07:22:36;;;;;;;;;;;;;;;;;;5086021;27;20365;-66
2022/10/26 07:25:02;;;;;;;;;;;;;;;;;;5086019;28;19927;-67
2022/10/26 07:27:28;;;;;;;;;;;;;;;;;;5085962;28;20368;-66
2022/10/26 07:33:02;;;;;;;;;;;;;;;;;;5110021;27;19920;-67
2022/10/26 07:35:28;;;;;;;;;;;;;;;;;;5110983;28;20007;-67
2022/10/26 07:37:54;;;;;;;;;;;;;;;;;;5122613;28;19908;-66
2022/10/26 07:40:20;;;;;;;;;;;;;;;;;;5130529;27;19908;-68
2022/10/26 07:42:45;;;;;;;;;;;;;;;;;;5131003;27;19951;-65
2022/10/26 07:45:11;;;;;;;;;;;;;;;;;;5129799;28;19912;-66
2022/10/26 07:47:37;;;;;;;;;;;;;;;;;;5127333;27;19908;-67
2022/10/26 07:50:04;;;;;;;;;;;;;;;;;;5107627;28;19949;-66
2022/10/26 07:55:20;;;;;;;;;;;;;;;;;;5087060;28;19960;-69
2022/10/26 07:57:46;;;;;;;;;;;;;;;;;;5086103;28;20003;-67
2022/10/26 08:00:12;;;;;;;;;;;;;;;;;;5083183;28;20006;-67
2022/10/26 08:03:42;;;;;;;;;;;;;;;;;;5086800;27;19916;-66
2022/10/26 08:06:09;;;;;;;;;;;;;;;;;;5088305;28;20372;-66
2022/10/26 08:08:35;;;;;;;;;;;;;;;;;;5088102;28;19915;-66
2022/10/26 08:11:01;;;;;;;;;;;;;;;;;;5085455;28;20018;-67
2022/10/26 08:15:13;;;;;;;;;;;;;;;;;;5088062;28;19917;-68
2022/10/26 08:20:17;;;;;;;;;;;;;;;;;;5109489;27;19916;-67
2022/10/26 08:25:54;;;;;;;;;;;;;;;;;;5109495;27;19920;-67
2022/10/26 08:28:20;;;;;;;;;;;;;;;;;;5103803;28;19919;-69
2022/10/26 08:30:46;;;;;;;;;;;;;;;;;;5107319;28;20376;-66
2022/10/26 08:34:07;;;;;;;;;;;;;;;;;;5110467;27;19918;-67
2022/10/26 08:36:33;;;;;;;;;;;;;;;;;;5110530;28;19959;-66
2022/10/26 08:40:17;;;;;;;;;;;;;;;;;;5110745;27;19922;-67
2022/10/26 08:45:39;;;;;;;;;;;;;;;;;;5110447;27;19912;-67
2022/10/26 08:48:48;;;;;;;;;;;;;;;;;;5108197;27;19916;-66
2022/10/26 08:51:14;;;;;;;;;;;;;;;;;;5108658;28;19918;-68
2022/10/26 08:53:40;;;;;;;;;;;;;;;;;;5109061;28;19930;-67
2022/10/26 08:56:06;;;;;;;;;;;;;;;;;;5109419;28;20342;-66
2022/10/26 08:58:32;;;;;;;;;;;;;;;;;;5106740;28;19923;-66
2022/10/26 09:01:38;;;;;;;;;;;;;;;;;;5108176;27;20359;-66
2022/10/26 09:04:38;;;;;;;;;;;;;;;;;;5150771;27;19912;-67
2022/10/26 09:07:04;;;;;;;;;;;;;;;;;;5149383;27;19916;-66
2022/10/26 09:09:30;;;;;;;;;;;;;;;;;;5144316;27;19908;-68
2022/10/26 09:19:00;;;;;;;;;;;;;;;;;;5065075;28;19912;-70
2022/10/26 09:21:57;;;;;;;;;;;;;;;;;;5106782;27;19922;-69
2022/10/26 09:24:35;;;;;;;;;;;;;;;;;;5087712;27;19912;-69
2022/10/26 09:27:01;;;;;;;;;;;;;;;;;;5083161;28;20399;-68
2022/10/26 09:31:18;;;;;;;;;;;;;;;;;;5100730;27;19921;-69
2022/10/26 09:35:25;;;;;;;;;;;;;;;;;;5102429;27;19926;-69
2022/10/26 09:37:51;;;;;;;;;;;;;;;;;;5077849;28;19920;-69
2022/10/26 09:41:45;;;;;;;;;;;;;;;;;;5108747;27;20397;-67
2022/10/26 09:44:40;;;;;;;;;;;;;;;;;;5109816;27;19916;-68
2022/10/26 09:47:06;;;;;;;;;;;;;;;;;;5109948;28;20271;-69
2022/10/26 09:49:32;;;;;;;;;;;;;;;;;;5109829;28;19907;-69
2022/10/26 09:51:58;;;;;;;;;;;;;;;;;;5108705;28;19908;-68
2022/10/26 09:54:24;;;;;;;;;;;;;;;;;;5108389;28;19919;-69
2022/10/26 09:57:49;;;;;;;;;;;;;;;;;;5088646;27;19931;-68
2022/10/26 10:00:15;;;;;;;;;;;;;;;;;;5088370;28;19913;-68
2022/10/26 10:02:45;;;;;;;;;;;;;;;;;;5087980;28;19919;-71
2022/10/26 10:05:10;;;;;;;;;;;;;;;;;;5090000;28;19951;-71
2022/10/26 10:07:36;;;;;;;;;;;;;;;;;;5081199;28;19944;-71
2022/10/26 10:10:02;;;;;;;;;;;;;;;;;;5088459;28;19939;-70
2022/10/26 10:12:28;;;;;;;;;;;;;;;;;;5081884;28;19908;-69
2022/10/26 10:14:55;;;;;;;;;;;;;;;;;;5081994;28;20353;-69
2022/10/26 10:17:21;;;;;;;;;;;;;;;;;;5088789;28;19916;-69
2022/10/26 10:19:47;;;;;;;;;;;;;;;;;;5086005;28;20292;-69
2022/10/26 10:22:13;;;;;;;;;;;;;;;;;;5090104;28;19913;-70
2022/10/26 10:24:39;;;;;;;;;;;;;;;;;;5082426;28;19940;-70
2022/10/26 10:27:05;;;;;;;;;;;;;;;;;;5076319;28;19916;-70
2022/10/26 10:29:31;;;;;;;;;;;;;;;;;;5082854;28;19909;-71
2022/10/26 10:32:00;;;;;;;;;;;;;;;;;;5088572;28;19913;-70
2022/10/26 10:34:26;;;;;;;;;;;;;;;;;;5086019;28;19966;-73
2022/10/26 10:36:52;;;;;;;;;;;;;;;;;;5087357;28;20391;-70
2022/10/26 10:39:18;;;;;;;;;;;;;;;;;;5077888;28;19962;-70
2022/10/26 10:41:44;;;;;;;;;;;;;;;;;;5101963;28;20043;-70
2022/10/26 10:44:10;;;;;;;;;;;;;;;;;;5080724;28;19916;-72
2022/10/26 10:46:42;;;;;;;;;;;;;;;;;;5086096;28;19912;-71
2022/10/26 10:49:08;;;;;;;;;;;;;;;;;;5077399;28;20284;-71
2022/10/26 10:51:35;;;;;;;;;;;;;;;;;;5066636;28;20011;-71
2022/10/26 10:54:01;;;;;;;;;;;;;;;;;;5083937;28;19909;-71
2022/10/26 10:56:27;;;;;;;;;;;;;;;;;;5077060;28;19946;-71
2022/10/26 10:58:53;;;;;;;;;;;;;;;;;;5069062;28;19912;-72
2022/10/26 11:01:19;;;;;;;;;;;;;;;;;;5082710;28;19943;-70
2022/10/26 11:03:44;;;;;;;;;;;;;;;;;;5084213;28;19909;-71
2022/10/26 11:06:10;;;;;;;;;;;;;;;;;;5085605;28;20378;-69
2022/10/26 11:08:36;;;;;;;;;;;;;;;;;;5075304;28;20273;-71
2022/10/26 11:11:02;;;;;;;;;;;;;;;;;;5075166;28;19912;-72
2022/10/26 11:13:28;;;;;;;;;;;;;;;;;;5091833;28;20039;-71
2022/10/26 11:15:54;;;;;;;;;;;;;;;;;;5091017;28;19912;-71
2022/10/26 11:18:20;;;;;;;;;;;;;;;;;;5091305;28;19916;-71
2022/10/26 11:20:46;;;;;;;;;;;;;;;;;;5074333;28;19912;-71
2022/10/26 11:23:12;;;;;;;;;;;;;;;;;;5094395;28;19912;-71
2022/10/26 11:25:38;;;;;;;;;;;;;;;;;;5075465;28;19957;-72
2022/10/26 11:28:04;;;;;;;;;;;;;;;;;;5072429;28;19920;-69
2022/10/26 11:30:30;;;;;;;;;;;;;;;;;;5090406;28;19912;-70
2022/10/26 11:32:56;;;;;;;;;;;;;;;;;;5074280;28;19916;-71
2022/10/26 11:35:23;;;;;;;;;;;;;;;;;;5089590;28;19963;-70
2022/10/26 11:37:49;;;;;;;;;;;;;;;;;;5056175;28;19920;-73
2022/10/26 11:40:15;;;;;;;;;;;;;;;;;;5057817;28;19912;-68
2022/10/26 11:42:41;;;;;;;;;;;;;;;;;;5090358;28;19940;-69
2022/10/26 11:45:07;;;;;;;;;;;;;;;;;;5078771;28;20010;-70
2022/10/26 11:47:35;;;;;;;;;;;;;;;;;;5073490;28;20369;-69
2022/10/26 11:50:01;;;;;;;;;;;;;;;;;;5092819;28;19908;-69
2022/10/26 11:52:27;;;;;;;;;;;;;;;;;;5088458;28;20609;-71
2022/10/26 11:54:53;;;;;;;;;;;;;;;;;;5086822;28;19983;-69
2022/10/26 11:57:19;;;;;;;;;;;;;;;;;;5082321;28;20011;-69
2022/10/26 11:59:45;;;;;;;;;;;;;;;;;;5076935;28;19963;-69
2022/10/26 12:02:11;;;;;;;;;;;;;;;;;;5095662;28;19961;-69
2022/10/26 12:04:37;;;;;;;;;;;;;;;;;;5095221;28;19912;-69
2022/10/26 12:07:03;;;;;;;;;;;;;;;;;;5089999;28;19912;-70
2022/10/26 12:09:29;;;;;;;;;;;;;;;;;;5081464;28;19909;-68
2022/10/26 12:11:54;;;;;;;;;;;;;;;;;;5066696;28;19908;-72
2022/10/26 12:14:20;;;;;;;;;;;;;;;;;;5062058;28;20380;-68
2022/10/26 12:16:46;;;;;;;;;;;;;;;;;;5088942;28;20395;-69
2022/10/26 12:19:12;;;;;;;;;;;;;;;;;;5093905;28;19912;-70
2022/10/26 12:21:41;;;;;;;;;;;;;;;;;;5093187;28;20004;-70
2022/10/26 12:24:07;;;;;;;;;;;;;;;;;;5085686;28;20292;-70
2022/10/26 12:26:33;;;;;;;;;;;;;;;;;;5083662;28;19912;-70
2022/10/26 12:28:59;;;;;;;;;;;;;;;;;;5091906;28;20253;-69
2022/10/26 12:31:24;;;;;;;;;;;;;;;;;;5076146;28;19908;-70
2022/10/26 12:33:50;;;;;;;;;;;;;;;;;;5093847;28;19953;-70
2022/10/26 12:36:16;;;;;;;;;;;;;;;;;;5093683;28;19981;-68
2022/10/26 12:38:42;;;;;;;;;;;;;;;;;;5074880;28;19946;-68
2022/10/26 12:41:09;;;;;;;;;;;;;;;;;;5093163;28;19908;-69
2022/10/26 12:43:35;;;;;;;;;;;;;;;;;;5087679;28;19912;-70
2022/10/26 12:46:01;;;;;;;;;;;;;;;;;;5086627;28;20360;-71
2022/10/26 12:48:28;;;;;;;;;;;;;;;;;;5088484;28;19971;-69
2022/10/26 12:50:54;;;;;;;;;;;;;;;;;;5090797;28;19908;-71
2022/10/26 12:53:20;;;;;;;;;;;;;;;;;;5091635;28;19908;-70
2022/10/26 12:55:47;;;;;;;;;;;;;;;;;;5073991;28;20010;-70
2022/10/26 12:58:13;;;;;;;;;;;;;;;;;;5092407;28;19908;-69
2022/10/26 13:00:39;;;;;;;;;;;;;;;;;;5074878;28;19915;-70
2022/10/26 13:03:05;;;;;;;;;;;;;;;;;;5073665;28;20006;-70
2022/10/26 13:05:31;;;;;;;;;;;;;;;;;;5092073;28;19965;-70
2022/10/26 13:07:57;;;;;;;;;;;;;;;;;;5092032;28;19918;-66
2022/10/26 13:10:23;;;;;;;;;;;;;;;;;;5091974;28;20372;-67
2022/10/26 13:12:49;;;;;;;;;;;;;;;;;;5074214;28;20311;-66
2022/10/26 13:15:14;;;;;;;;;;;;;;;;;;5074158;28;19908;-66
2022/10/26 13:17:40;;;;;;;;;;;;;;;;;;5093760;28;19916;-66
2022/10/26 13:20:07;;;;;;;;;;;;;;;;;;5093705;28;19912;-68
2022/10/26 13:22:33;;;;;;;;;;;;;;;;;;5094178;28;19958;-67
2022/10/26 13:25:00;;;;;;;;;;;;;;;;;;5093970;28;19951;-68
2022/10/26 13:27:26;;;;;;;;;;;;;;;;;;5076161;28;20336;-67
2022/10/26 13:29:52;;;;;;;;;;;;;;;;;;5076107;28;19909;-68
2022/10/26 13:32:18;;;;;;;;;;;;;;;;;;5093511;28;20398;-68
2022/10/26 13:34:44;;;;;;;;;;;;;;;;;;5094082;28;19959;-68
2022/10/26 13:37:10;;;;;;;;;;;;;;;;;;5094092;28;20003;-67
2022/10/26 13:39:36;;;;;;;;;;;;;;;;;;5093668;28;19908;-67
2022/10/26 13:42:02;;;;;;;;;;;;;;;;;;5094109;28;19961;-67
2022/10/26 13:44:28;;;;;;;;;;;;;;;;;;5094005;28;19991;-67
2022/10/26 13:46:53;;;;;;;;;;;;;;;;;;5093627;28;19912;-67
2022/10/26 13:49:19;;;;;;;;;;;;;;;;;;5094029;28;19915;-67
2022/10/26 13:51:45;;;;;;;;;;;;;;;;;;5094051;28;19908;-69
2022/10/26 13:54:11;;;;;;;;;;;;;;;;;;5093498;28;19909;-67
2022/10/26 13:56:37;;;;;;;;;;;;;;;;;;5093721;28;19924;-68
2022/10/26 13:59:03;;;;;;;;;;;;;;;;;;5093607;28;19908;-67
2022/10/26 14:01:29;;;;;;;;;;;;;;;;;;5093785;28;19947;-67
2022/10/26 14:03:55;;;;;;;;;;;;;;;;;;5093756;28;19908;-67
2022/10/26 14:06:21;;;;;;;;;;;;;;;;;;5093664;28;19908;-67
2022/10/26 14:08:48;;;;;;;;;;;;;;;;;;5076012;28;20007;-67
2022/10/26 14:11:14;;;;;;;;;;;;;;;;;;5093756;28;19908;-67
2022/10/26 14:13:40;;;;;;;;;;;;;;;;;;5093306;28;20284;-67
2022/10/26 14:16:06;;;;;;;;;;;;;;;;;;5094383;28;19922;-67
2022/10/26 14:18:32;;;;;;;;;;;;;;;;;;5093847;28;19908;-67
2022/10/26 14:20:58;;;;;;;;;;;;;;;;;;5093598;28;20364;-67
2022/10/26 14:23:24;;;;;;;;;;;;;;;;;;5093697;28;19954;-66
2022/10/26 14:25:50;;;;;;;;;;;;;;;;;;5093481;28;20324;-66
2022/10/26 14:28:16;;;;;;;;;;;;;;;;;;5093107;28;19908;-66
2022/10/26 14:30:41;;;;;;;;;;;;;;;;;;5075388;28;19914;-67
2022/10/26 14:33:07;;;;;;;;;;;;;;;;;;5093649;28;19908;-67
2022/10/26 14:35:40;;;;;;;;;;;;;;;;;;5093123;28;19912;-67
2022/10/26 14:38:06;;;;;;;;;;;;;;;;;;5093587;28;20368;-68
2022/10/26 14:40:33;;;;;;;;;;;;;;;;;;5093495;28;20390;-66
2022/10/26 14:42:59;;;;;;;;;;;;;;;;;;5094319;28;20396;-67
2022/10/26 14:45:25;;;;;;;;;;;;;;;;;;5079041;28;20012;-66
2022/10/26 14:47:51;;;;;;;;;;;;;;;;;;5079069;28;20019;-67
2022/10/26 14:50:17;;;;;;;;;;;;;;;;;;5078579;28;19912;-66
2022/10/26 14:52:43;;;;;;;;;;;;;;;;;;5078935;28;19915;-66
2022/10/26 14:55:09;;;;;;;;;;;;;;;;;;5097071;28;20326;-66
2022/10/26 14:57:35;;;;;;;;;;;;;;;;;;5075099;28;19943;-67
2022/10/26 15:00:01;;;;;;;;;;;;;;;;;;5076632;28;20003;-66
2022/10/26 15:02:27;;;;;;;;;;;;;;;;;;5076270;28;20430;-66
2022/10/26 15:04:53;;;;;;;;;;;;;;;;;;5075385;28;20315;-67
2022/10/26 15:07:19;;;;;;;;;;;;;;;;;;5076760;28;19908;-67
2022/10/26 15:09:45;;;;;;;;;;;;;;;;;;5076127;28;19916;-67
2022/10/26 15:12:10;;;;;;;;;;;;;;;;;;5076533;28;19908;-67
2022/10/26 15:14:36;;;;;;;;;;;;;;;;;;5076531;28;20377;-67
2022/10/26 15:17:02;;;;;;;;;;;;;;;;;;5076110;28;20288;-67
2022/10/26 15:19:28;;;;;;;;;;;;;;;;;;5076343;28;19909;-67
2022/10/26 15:21:54;;;;;;;;;;;;;;;;;;5076330;28;19931;-67
2022/10/26 15:24:20;;;;;;;;;;;;;;;;;;5075858;28;19999;-67
2022/10/26 15:26:46;;;;;;;;;;;;;;;;;;5076410;28;19999;-67
2022/10/26 15:29:12;;;;;;;;;;;;;;;;;;5076283;28;20357;-67
2022/10/26 15:33:51;;;;;;;;;;;;;;;;;;5112107;27;20024;-68
2022/10/26 15:36:17;;;;;;;;;;;;;;;;;;5111710;28;20006;-68
2022/10/26 15:38:43;;;;;;;;;;;;;;;;;;5109927;28;19970;-68
2022/10/26 15:41:09;;;;;;;;;;;;;;;;;;5111500;28;19908;-68
2022/10/26 15:43:35;;;;;;;;;;;;;;;;;;5110173;28;19958;-68
2022/10/26 15:46:01;;;;;;;;;;;;;;;;;;5111219;28;19950;-68
2022/10/26 15:48:28;;;;;;;;;;;;;;;;;;5111428;28;19908;-68
2022/10/26 15:50:53;;;;;;;;;;;;;;;;;;5111452;28;19908;-67
2022/10/26 15:53:19;;;;;;;;;;;;;;;;;;5110911;28;19916;-68
2022/10/26 15:55:45;;;;;;;;;;;;;;;;;;5110225;28;19912;-68
2022/10/26 15:58:11;;;;;;;;;;;;;;;;;;5111211;28;19915;-67
2022/10/26 16:02:52;;;;;;;;;;;;;;;;;;5153006;27;19998;-68
2022/10/26 16:05:18;;;;;;;;;;;;;;;;;;5134234;27;19951;-66
2022/10/26 16:08:19;;;;;;;;;;;;;;;;;;5091560;27;19917;-67
2022/10/26 16:10:46;;;;;;;;;;;;;;;;;;5089832;28;20006;-66
2022/10/26 16:13:11;;;;;;;;;;;;;;;;;;5091168;28;19909;-67
2022/10/26 16:15:37;;;;;;;;;;;;;;;;;;5091156;28;20010;-67
2022/10/26 16:18:03;;;;;;;;;;;;;;;;;;5091037;28;19908;-67
2022/10/26 16:20:29;;;;;;;;;;;;;;;;;;5090600;28;19966;-67
2022/10/26 16:22:55;;;;;;;;;;;;;;;;;;5091269;28;19999;-67
2022/10/26 16:25:21;;;;;;;;;;;;;;;;;;5089415;28;19908;-67
2022/10/26 16:29:01;;;;;;;;;;;;;;;;;;5111725;27;20392;-69
2022/10/26 16:31:27;;;;;;;;;;;;;;;;;;5111756;28;19934;-68
2022/10/26 16:33:52;;;;;;;;;;;;;;;;;;5111200;28;19904;-68
2022/10/26 16:36:18;;;;;;;;;;;;;;;;;;5111789;28;19904;-69
2022/10/26 16:38:44;;;;;;;;;;;;;;;;;;5111480;28;19999;-67
2022/10/26 16:41:10;;;;;;;;;;;;;;;;;;5111260;28;19911;-70
2022/10/26 16:43:36;;;;;;;;;;;;;;;;;;5111675;28;19948;-67
2022/10/26 16:46:02;;;;;;;;;;;;;;;;;;5111331;28;19904;-67
2022/10/26 16:48:28;;;;;;;;;;;;;;;;;;5111159;28;19912;-67
2022/10/26 16:50:54;;;;;;;;;;;;;;;;;;5111287;28;19903;-68
2022/10/26 16:53:20;;;;;;;;;;;;;;;;;;5111261;28;19904;-67
2022/10/26 16:55:46;;;;;;;;;;;;;;;;;;5110911;28;20368;-67
2022/10/26 16:58:12;;;;;;;;;;;;;;;;;;5110004;28;20314;-68
2022/10/26 17:00:38;;;;;;;;;;;;;;;;;;5111043;28;20322;-67
2022/10/26 17:03:04;;;;;;;;;;;;;;;;;;5110785;28;19926;-68
2022/10/26 17:05:30;;;;;;;;;;;;;;;;;;5109528;28;19914;-68
2022/10/26 17:07:56;;;;;;;;;;;;;;;;;;5110329;28;19962;-68
2022/10/26 17:11:55;;;;;;;;;;;;;;;;;;5110113;27;20397;-66
2022/10/26 17:14:21;;;;;;;;;;;;;;;;;;5109402;28;20377;-70
2022/10/26 17:16:47;;;;;;;;;;;;;;;;;;5109095;28;19908;-66
2022/10/26 17:19:13;;;;;;;;;;;;;;;;;;5109416;28;20371;-66
2022/10/26 17:21:39;;;;;;;;;;;;;;;;;;5110392;28;19911;-66
2022/10/26 17:24:05;;;;;;;;;;;;;;;;;;5110161;28;19984;-69
2022/10/26 17:26:31;;;;;;;;;;;;;;;;;;5111002;28;19904;-67
2022/10/26 17:29:47;;;;;;;;;;;;;;;;;;5111050;27;19922;-66
2022/10/26 17:32:13;;;;;;;;;;;;;;;;;;5111225;28;20368;-66
2022/10/26 17:36:59;;;;;;;;;;;;;;;;;;5112262;27;19912;-69
2022/10/26 17:39:25;;;;;;;;;;;;;;;;;;5111294;28;20456;-65
2022/10/26 17:41:51;;;;;;;;;;;;;;;;;;5110180;28;19939;-68
2022/10/26 17:44:17;;;;;;;;;;;;;;;;;;5111106;28;19957;-66
2022/10/26 17:46:43;;;;;;;;;;;;;;;;;;5110116;28;19915;-66
2022/10/26 17:50:34;;;;;;;;;;;;;;;;;;5111643;27;19916;-69
2022/10/26 17:53:00;;;;;;;;;;;;;;;;;;5111345;28;19912;-68
2022/10/26 17:55:26;;;;;;;;;;;;;;;;;;5111648;28;19912;-66
2022/10/26 17:57:52;;;;;;;;;;;;;;;;;;5111592;28;19908;-67
2022/10/26 18:01:47;;;;;;;;;;;;;;;;;;5111521;27;20129;-66
2022/10/26 18:06:16;;;;;;;;;;;;;;;;;;5111338;27;20389;-67
2022/10/26 18:08:41;;;;;;;;;;;;;;;;;;5110213;28;19930;-67
2022/10/26 18:11:07;;;;;;;;;;;;;;;;;;5111583;28;19904;-68
2022/10/26 18:13:33;;;;;;;;;;;;;;;;;;5111346;28;19903;-67
2022/10/26 18:17:03;;;;;;;;;;;;;;;;;;5111899;27;20423;-66
2022/10/26 18:19:29;;;;;;;;;;;;;;;;;;5111263;28;19908;-68
2022/10/26 18:21:55;;;;;;;;;;;;;;;;;;5111550;28;20443;-66
2022/10/26 18:24:21;;;;;;;;;;;;;;;;;;5111607;28;20249;-66